createdAt,value
2022-10-06T05:52:04.850Z,98091.66
2022-10-06T05:54:07.944Z,98094.78
2022-10-06T05:56:13.757Z,98088.97
2022-10-06T05:58:18.474Z,98090.13
2022-10-06T06:00:21.494Z,98094.41
2022-10-06T06:02:24.549Z,98094.59
2022-10-06T06:04:27.292Z,98096.22
2022-10-06T06:06:31.577Z,98092.50
2022-10-06T06:08:36.426Z,98080.09
2022-10-06T06:10:39.279Z,98084.81
2022-10-06T06:12:42.124Z,98090.34
2022-10-06T06:15:02.111Z,98086.22
2022-10-06T06:17:05.355Z,98084.13
2022-10-06T06:19:09.766Z,98088.25
2022-10-06T06:21:12.548Z,98097.69
2022-10-06T06:23:16.407Z,98092.94
2022-10-06T06:25:20.556Z,98094.41
2022-10-06T06:27:23.489Z,98094.19
2022-10-06T06:29:26.344Z,98089.41
2022-10-06T06:31:31.244Z,98104.25
2022-10-06T06:33:34.690Z,98101.34
2022-10-06T06:35:38.383Z,98102.97
2022-10-06T06:37:41.219Z,98095.56
2022-10-06T06:39:44.181Z,98102.56
2022-10-06T06:41:48.926Z,98112.25
2022-10-06T06:43:54.857Z,98110.38
2022-10-06T06:46:04.232Z,98109.56
2022-10-06T06:48:07.189Z,98110.16
2022-10-06T06:50:12.867Z,98109.13
2022-10-06T06:52:16.226Z,98117.41
2022-10-06T06:54:19.328Z,98127.91
2022-10-06T06:56:22.837Z,98128.50
2022-10-06T06:58:27.964Z,98120.22
2022-10-06T07:00:35.936Z,98112.78
2022-10-06T07:02:39.232Z,98126.00
2022-10-06T07:04:44.779Z,98126.38
2022-10-06T07:07:00.510Z,98125.72
2022-10-06T07:09:03.767Z,98129.63
2022-10-06T07:11:14.838Z,98127.13
2022-10-06T07:13:17.963Z,98129.97
2022-10-06T07:15:42.733Z,98136.16
2022-10-06T07:18:02.884Z,98132.81
2022-10-06T07:20:20.773Z,98133.63
2022-10-06T07:22:43.581Z,98137.78
2022-10-06T07:25:04.959Z,98133.00
2022-10-06T07:27:08.142Z,98136.31
2022-10-06T07:29:11.252Z,98132.38
2022-10-06T07:31:16.402Z,98119.56
2022-10-06T07:33:19.412Z,98122.00
2022-10-06T07:35:24.560Z,98126.56
2022-10-06T07:37:28.804Z,98126.34
2022-10-06T07:39:32.623Z,98129.03
2022-10-06T07:41:35.504Z,98133.56
2022-10-06T07:43:38.395Z,98136.03
2022-10-06T07:45:42.061Z,98132.31
2022-10-06T07:47:47.581Z,98130.47
2022-10-06T07:49:51.431Z,98131.47
2022-10-06T07:51:57.955Z,98126.13
2022-10-06T07:54:00.689Z,98132.94
2022-10-06T07:56:05.647Z,98136.44
2022-10-06T07:58:11.863Z,98138.88
2022-10-06T08:00:16.528Z,98136.81
2022-10-06T08:02:19.800Z,98136.59
2022-10-06T08:04:24.090Z,98134.72
2022-10-06T08:06:27.045Z,98143.38
2022-10-06T08:08:31.974Z,98143.38
2022-10-06T08:10:34.829Z,98141.09
2022-10-06T08:12:40.031Z,98147.50
2022-10-06T08:14:42.837Z,98141.09
2022-10-06T08:16:45.924Z,98140.69
2022-10-06T08:18:53.629Z,98142.31
2022-10-06T08:20:58.554Z,98149.34
2022-10-06T08:23:01.436Z,98145.63
2022-10-06T08:25:06.813Z,98148.31
2022-10-06T08:27:10.473Z,98144.81
2022-10-06T08:29:13.481Z,98147.69
2022-10-06T08:31:17.850Z,98149.56
2022-10-06T08:33:21.524Z,98139.03
2022-10-06T08:35:24.664Z,98139.63
2022-10-06T08:37:29.044Z,98139.22
2022-10-06T08:39:32.004Z,98154.28
2022-10-06T08:41:40.600Z,98147.88
2022-10-06T08:43:47.320Z,98148.47
2022-10-06T08:46:01.239Z,98152.78
2022-10-06T08:48:07.156Z,98145.34
2022-10-06T08:50:13.556Z,98148.66
2022-10-06T08:52:29.992Z,98151.94
2022-10-06T08:54:42.604Z,98149.03
2022-10-06T08:56:57.923Z,98140.97
2022-10-06T08:59:05.179Z,98137.00
2022-10-06T09:01:18.600Z,98139.47
2022-10-06T09:03:28.067Z,98141.13
2022-10-06T09:05:32.068Z,98142.97
2022-10-06T09:07:44.355Z,98141.72
2022-10-06T09:10:11.911Z,98143.16
2022-10-06T09:12:20.889Z,98139.03
2022-10-06T09:14:29.449Z,98132.84
2022-10-06T09:16:38.045Z,98140.88
2022-10-06T09:19:07.339Z,98139.03
2022-10-06T09:21:15.903Z,98130.78
2022-10-06T09:23:40.605Z,98138.59
2022-10-06T09:25:44.983Z,98142.94
2022-10-06T09:27:51.105Z,98131.97
2022-10-06T09:29:54.682Z,98131.97
2022-10-06T09:31:57.751Z,98133.38
2022-10-06T09:34:05.451Z,98133.16
2022-10-06T09:36:10.215Z,98133.78
2022-10-06T09:38:12.968Z,98127.38
2022-10-06T09:40:35.388Z,98127.13
2022-10-06T09:42:45.736Z,98125.63
2022-10-06T09:44:58.223Z,98122.72
2022-10-06T09:47:00.998Z,98126.00
2022-10-06T09:49:15.757Z,98123.94
2022-10-06T09:51:19.383Z,98125.59
2022-10-06T09:53:22.081Z,98119.75
2022-10-06T09:55:28.853Z,98114.97
2022-10-06T09:57:32.644Z,98117.22
2022-10-06T09:59:41.858Z,98118.88
2022-10-06T10:01:52.781Z,98115.16
2022-10-06T10:04:20.428Z,98111.22
2022-10-06T10:06:27.721Z,98109.34
2022-10-06T10:08:31.070Z,98104.81
2022-10-06T10:10:36.504Z,98104.56
2022-10-06T10:12:50.341Z,98101.44
2022-10-06T10:14:56.476Z,98097.69
2022-10-06T10:16:59.322Z,98106.16
2022-10-06T10:19:02.938Z,98101.38
2022-10-06T10:21:08.526Z,98105.47
2022-10-06T10:23:30.064Z,98100.91
2022-10-06T10:25:45.743Z,98093.44
2022-10-06T10:27:56.697Z,98099.63
2022-10-06T10:30:09.212Z,98096.75
2022-10-06T10:32:17.148Z,98096.50
2022-10-06T10:34:48.402Z,98100.84
2022-10-06T10:36:55.408Z,98089.84
2022-10-06T10:38:59.943Z,98084.25
2022-10-06T10:41:09.883Z,98090.44
2022-10-06T10:43:22.105Z,98091.25
2022-10-06T10:45:32.211Z,98084.84
2022-10-06T10:47:38.613Z,98090.81
2022-10-06T10:49:48.439Z,98085.44
2022-10-06T10:51:55.700Z,98089.75
2022-10-06T10:54:05.452Z,98087.91
2022-10-06T10:56:10.026Z,98083.94
2022-10-06T10:58:19.293Z,98077.53
2022-10-06T11:00:25.269Z,98085.59
2022-10-06T11:02:29.789Z,98075.66
2022-10-06T11:04:32.849Z,98079.97
2022-10-06T11:06:55.802Z,98082.44
2022-10-06T11:09:04.030Z,98085.72
2022-10-06T11:11:14.465Z,98079.09
2022-10-06T11:13:21.641Z,98079.91
2022-10-06T11:15:42.271Z,98081.53
2022-10-06T11:17:50.245Z,98071.63
2022-10-06T11:19:59.085Z,98079.44
2022-10-06T11:22:06.758Z,98070.34
2022-10-06T11:24:16.701Z,98073.59
2022-10-06T11:26:38.051Z,98071.75
2022-10-06T11:28:45.753Z,98072.56
2022-10-06T11:31:00.252Z,98069.63
2022-10-06T11:33:14.903Z,98073.16
2022-10-06T11:35:21.406Z,98064.84
2022-10-06T11:37:36.426Z,98056.59
2022-10-06T11:39:49.852Z,98060.09
2022-10-06T11:41:59.671Z,98057.97
2022-10-06T11:44:08.399Z,98060.44
2022-10-06T11:46:31.032Z,98065.81
2022-10-06T11:48:36.651Z,98047.81
2022-10-06T11:50:41.743Z,98044.91
2022-10-06T11:52:47.757Z,98048.16
2022-10-06T11:54:52.937Z,98041.75
2022-10-06T11:56:55.750Z,98039.06
2022-10-06T11:59:25.184Z,98032.66
2022-10-06T12:02:01.897Z,98037.78
2022-10-06T12:04:18.522Z,98038.63
2022-10-06T12:06:54.151Z,98034.88
2022-10-06T12:08:57.220Z,98027.38
2022-10-06T12:11:00.103Z,98027.16
2022-10-06T12:13:51.280Z,98019.91
2022-10-06T12:18:35.704Z,98017.81
2022-10-06T12:20:54.215Z,98019.22
2022-10-06T12:23:04.807Z,98014.66
2022-10-06T12:25:17.829Z,98015.25
2022-10-06T12:27:49.199Z,98007.78
2022-10-06T12:29:59.389Z,98004.84
2022-10-06T12:32:15.248Z,98001.94
2022-10-06T12:34:55.930Z,98000.66
2022-10-06T12:37:32.391Z,98000.66
2022-10-06T12:39:36.915Z,97990.97
2022-10-06T12:41:57.975Z,98002.31
2022-10-06T12:44:03.647Z,97997.75
2022-10-06T12:46:16.552Z,97991.09
2022-10-06T12:48:24.252Z,97989.00
2022-10-06T12:50:28.138Z,97977.41
2022-10-06T12:52:48.243Z,97974.72
2022-10-06T12:55:04.142Z,97974.25
2022-10-06T12:57:17.820Z,97970.75
2022-10-06T12:59:24.680Z,97969.44
2022-10-06T13:01:28.509Z,97963.00
2022-10-06T13:03:31.786Z,97957.44
2022-10-06T13:05:35.585Z,97956.59
2022-10-06T13:07:57.123Z,97954.50
2022-10-06T13:10:20.568Z,97962.31
2022-10-06T13:12:25.312Z,97956.72
2022-10-06T13:14:28.312Z,97957.28
2022-10-06T13:16:33.478Z,97944.91
2022-10-06T13:18:36.948Z,97949.22
2022-10-06T13:20:42.368Z,97943.59
2022-10-06T13:22:45.122Z,97941.50
2022-10-06T13:24:47.971Z,97948.28
2022-10-06T13:26:52.275Z,97950.50
2022-10-06T13:28:56.284Z,97936.00
2022-10-06T13:33:08.646Z,97934.94
2022-10-06T13:35:12.899Z,97933.31
2022-10-06T13:37:19.303Z,97936.81
2022-10-06T13:39:23.859Z,97941.13
2022-10-06T13:41:30.891Z,97940.91
2022-10-06T13:43:40.674Z,97945.47
2022-10-06T13:45:44.978Z,97940.91
2022-10-06T13:47:55.551Z,97939.84
2022-10-06T13:50:03.577Z,97944.19
2022-10-06T13:52:16.183Z,97939.63
2022-10-06T13:54:25.366Z,97937.75
2022-10-06T13:56:34.666Z,97943.13
2022-10-06T13:58:38.804Z,97933.78
2022-10-06T14:00:51.077Z,97941.38
2022-10-06T14:02:56.626Z,97942.19
2022-10-06T14:05:36.968Z,97938.66
2022-10-06T14:07:44.581Z,97936.22
2022-10-06T14:09:51.634Z,97927.91
2022-10-06T14:12:03.153Z,97932.22
2022-10-06T14:14:14.006Z,97939.50
2022-10-06T14:16:22.379Z,97940.31
2022-10-06T14:18:29.030Z,97935.75
2022-10-06T14:20:38.640Z,97928.25
2022-10-06T14:22:41.943Z,97930.94
2022-10-06T14:24:55.523Z,97933.41
2022-10-06T14:27:03.208Z,97931.53
2022-10-06T14:29:07.496Z,97933.19
2022-10-06T14:31:14.499Z,97929.91
2022-10-06T14:33:17.870Z,97927.44
2022-10-06T14:35:22.363Z,97932.59
2022-10-06T14:37:25.342Z,97923.69
2022-10-06T14:39:28.657Z,97923.91
2022-10-06T14:41:31.973Z,97922.84
2022-10-06T14:43:36.007Z,97928.25
2022-10-06T14:45:43.838Z,97933.63
2022-10-06T14:47:47.136Z,97915.03
2022-10-06T14:49:57.197Z,97914.78
2022-10-06T14:52:00.118Z,97917.47
2022-10-06T14:54:03.642Z,97912.91
2022-10-06T14:56:09.099Z,97922.16
2022-10-06T14:58:12.305Z,97918.66
2022-10-06T15:00:16.232Z,97911.63
2022-10-06T15:02:21.631Z,97911.16
2022-10-06T15:04:27.252Z,97905.78
2022-10-06T15:06:47.965Z,97905.78
2022-10-06T15:08:52.271Z,97902.03
2022-10-06T15:10:55.030Z,97917.34
2022-10-06T15:12:58.048Z,97898.50
2022-10-06T15:15:00.787Z,97907.41
2022-10-06T15:17:04.769Z,97902.03
2022-10-06T15:19:11.757Z,97889.06
2022-10-06T15:21:14.988Z,97892.56
2022-10-06T15:23:17.710Z,97895.81
2022-10-06T15:25:34.502Z,97892.88
2022-10-06T15:27:54.566Z,97889.13
2022-10-06T15:29:57.595Z,97887.50
2022-10-06T15:32:00.450Z,97880.50
2022-10-06T15:34:05.106Z,97887.75
2022-10-06T15:36:18.848Z,97887.50
2022-10-06T15:38:21.730Z,97891.94
2022-10-06T15:40:24.959Z,97878.56
2022-10-06T15:42:28.002Z,97884.66
2022-10-06T15:44:34.426Z,97882.88
2022-10-06T15:46:40.087Z,97882.19
2022-10-06T15:48:44.605Z,97887.09
2022-10-06T15:50:47.512Z,97883.09
2022-10-06T15:52:51.743Z,97877.69
2022-10-06T15:54:54.565Z,97884.97
2022-10-06T15:56:59.043Z,97878.53
2022-10-06T15:59:02.494Z,97883.66
2022-10-06T16:01:05.327Z,97884.72
2022-10-06T16:03:24.108Z,97885.53
2022-10-06T16:05:49.655Z,97878.03
2022-10-06T16:07:54.135Z,97879.69
2022-10-06T16:09:56.903Z,97884.47
2022-10-06T16:12:02.359Z,97890.69
2022-10-06T16:14:05.323Z,97888.81
2022-10-06T16:16:08.326Z,97888.81
2022-10-06T16:18:11.309Z,97890.91
2022-10-06T16:20:16.459Z,97889.28
2022-10-06T16:22:21.751Z,97882.28
2022-10-06T16:24:25.907Z,97888.72
2022-10-06T16:26:29.214Z,97885.47
2022-10-06T16:28:32.136Z,97879.50
2022-10-06T16:30:34.817Z,97881.63
2022-10-06T16:32:37.928Z,97891.53
2022-10-06T16:34:40.826Z,97886.63
2022-10-06T16:36:43.886Z,97889.56
2022-10-06T16:38:50.252Z,97888.50
2022-10-06T16:40:58.559Z,97885.47
2022-10-06T16:43:01.238Z,97884.66
2022-10-06T16:45:04.095Z,97883.25
2022-10-06T16:47:06.914Z,97884.28
2022-10-06T16:49:10.333Z,97882.66
2022-10-06T16:51:14.826Z,97885.59
2022-10-06T16:53:18.489Z,97885.59
2022-10-06T16:55:21.204Z,97889.34
2022-10-06T16:57:25.420Z,97889.59
2022-10-06T16:59:28.817Z,97892.53
2022-10-06T17:01:34.351Z,97889.50
2022-10-06T17:03:38.638Z,97892.41
2022-10-06T17:05:41.520Z,97895.34
2022-10-06T17:07:44.273Z,97889.63
2022-10-06T17:10:15.289Z,97892.56
2022-10-06T17:12:10.238Z,97883.91
2022-10-06T17:14:15.265Z,97891.38
2022-10-06T17:16:20.093Z,97896.19
2022-10-06T17:18:22.971Z,97898.88
2022-10-06T17:20:25.857Z,97898.53
2022-10-06T17:22:28.572Z,97896.34
2022-10-06T17:24:31.449Z,97900.31
2022-10-06T17:26:36.210Z,97897.84
2022-10-06T17:28:42.025Z,97898.09
2022-10-06T17:30:59.070Z,97901.00
2022-10-06T17:33:02.083Z,97898.31
2022-10-06T17:35:05.291Z,97902.88
2022-10-06T17:37:08.075Z,97907.44
2022-10-06T17:39:13.717Z,97904.19
2022-10-06T17:41:19.570Z,97904.44
2022-10-06T17:43:23.317Z,97903.00
2022-10-06T17:45:26.798Z,97902.44
2022-10-06T17:47:31.392Z,97903.47
2022-10-06T17:49:34.875Z,97905.13
2022-10-06T17:51:40.628Z,97908.88
2022-10-06T17:53:46.291Z,97904.53
2022-10-06T17:55:49.316Z,97901.84
2022-10-06T17:57:52.115Z,97902.31
2022-10-06T17:59:57.392Z,97904.44
2022-10-06T18:02:02.529Z,97905.72
2022-10-06T18:04:07.758Z,97898.44
2022-10-06T18:06:11.754Z,97900.31
2022-10-06T18:08:14.489Z,97901.38
2022-10-06T18:10:34.795Z,97901.63
2022-10-06T18:12:38.475Z,97906.19
2022-10-06T18:14:41.699Z,97908.28
2022-10-06T18:16:46.281Z,97910.66
2022-10-06T18:18:50.555Z,97907.97
2022-10-06T18:21:03.757Z,97908.19
2022-10-06T18:23:07.151Z,97912.53
2022-10-06T18:25:16.673Z,97909.00
2022-10-06T18:27:20.081Z,97911.91
2022-10-06T18:29:25.568Z,97913.78
2022-10-06T18:31:28.339Z,97914.22
2022-10-06T18:36:14.716Z,97919.59
2022-10-06T18:38:18.107Z,97923.97
2022-10-06T18:40:20.833Z,97920.66
2022-10-06T18:42:24.042Z,97925.84
2022-10-06T18:44:40.677Z,97923.34
2022-10-06T18:47:00.657Z,97932.47
2022-10-06T18:49:10.388Z,97923.34
2022-10-06T18:51:14.694Z,97927.09
2022-10-06T18:53:17.493Z,97930.25
2022-10-06T18:55:21.604Z,97928.63
2022-10-06T18:57:27.721Z,97924.31
2022-10-06T18:59:31.292Z,97932.56
2022-10-06T19:01:34.323Z,97929.53
2022-10-06T19:03:37.376Z,97933.03
2022-10-06T19:05:40.075Z,97934.91
2022-10-06T19:07:45.009Z,97935.72
2022-10-06T19:09:48.197Z,97935.97
2022-10-06T19:11:53.170Z,97939.72
2022-10-06T19:13:57.894Z,97930.25
2022-10-06T19:16:01.872Z,97932.13
2022-10-06T19:18:04.715Z,97942.06
2022-10-06T19:20:10.948Z,97943.94
2022-10-06T19:22:29.984Z,97948.69
2022-10-06T19:24:38.401Z,97946.47
2022-10-06T19:26:45.819Z,97955.59
2022-10-06T19:28:53.582Z,97941.56
2022-10-06T19:30:58.524Z,97947.53
2022-10-06T19:33:01.287Z,97953.97
2022-10-06T19:35:09.243Z,97955.00
2022-10-06T19:37:13.056Z,97947.41
2022-10-06T19:39:15.854Z,97956.50
2022-10-06T19:41:37.374Z,97947.03
2022-10-06T19:43:40.250Z,97952.66
2022-10-06T19:45:43.386Z,97952.88
2022-10-06T19:47:47.081Z,97954.75
2022-10-06T19:49:50.158Z,97957.44
2022-10-06T19:51:53.297Z,97959.31
2022-10-06T19:53:58.839Z,97959.09
2022-10-06T19:56:02.831Z,97962.81
2022-10-06T19:58:11.580Z,97962.00
2022-10-06T20:00:16.098Z,97962.81
2022-10-06T20:02:21.463Z,97962.81
2022-10-06T20:04:25.781Z,97956.63
2022-10-06T20:06:30.373Z,97962.00
2022-10-06T20:08:33.229Z,97962.25
2022-10-06T20:10:35.939Z,97958.34
